Fruitland
, Fruitland
Last Weather Update:09/30/2011 10:00:00 PM
Date
ETo
ETc
Rain
Irrigation
Req
Temp
Max
Temp
Min
Temp
Avg
Avg RH
Avg Wind
Avg Solar
inches
inches
incehs
inches
F
F
F
%
%
watts/m2
08/01/2011 0.14" 0.13" 0.01" 0.12" 76.6° 54.9° 63.9° 74.8% 2.5 MPH 200.2w/m2
08/02/2011 0.20" 0.18" 0.00" 0.18" 82.5° 45.9° 64.6° 62.8% 0.6 MPH 299.9w/m2
08/03/2011 0.16" 0.14" 0.00" 0.14" 81.0° 50.2° 64.7° 58.8% 3.0 MPH 214.9w/m2
08/04/2011 0.14" 0.13" 0.24" -0.07" 79.9° 44.5° 59.8° 69.1% 0.6 MPH 218.8w/m2
08/05/2011 0.24" 0.21" 0.00" 0.21" 83.5° 42.7° 63.5° 54.5% 1.8 MPH 333.2w/m2
08/06/2011 0.26" 0.23" 0.00" 0.23" 83.8° 39.4° 63.5° 38.5% 3.1 MPH 344.5w/m2
08/07/2011 0.27" 0.23" 0.00" 0.23" 83.2° 39.2° 63.1° 34.3% 3.9 MPH 346.2w/m2
08/08/2011 0.26" 0.22" 0.00" 0.22" 85.2° 38.3° 64.0° 36.4% 3.4 MPH 336.9w/m2
08/09/2011 0.27" 0.23" 0.00" 0.23" 84.8° 40.2° 65.2° 34.0% 3.8 MPH 337.5w/m2
08/10/2011 0.26" 0.22" 0.00" 0.22" 85.2° 38.1° 64.8° 33.9% 3.1 MPH 337.4w/m2
08/11/2011 0.26" 0.22" 0.00" 0.22" 85.2° 42.8° 65.6° 36.3% 3.5 MPH 330.6w/m2
08/12/2011 0.25" 0.21" 0.00" 0.21" 85.9° 48.8° 66.8° 33.9% 2.7 MPH 329.3w/m2
08/13/2011 0.22" 0.18" 0.00" 0.18" 89.7° 40.5° 68.2° 35.9% 1.1 MPH 311.6w/m2
08/14/2011 0.17" 0.13" 0.00" 0.13" 83.4° 49.2° 65.6° 57.9% 2.7 MPH 222.3w/m2
08/15/2011 0.21" 0.17" 0.16" 0.04" 84.6° 47.5° 64.8° 64.6% 3.1 MPH 279.1w/m2
08/16/2011 0.21" 0.17" 0.01" 0.16" 84.5° 45.6° 64.1° 56.2% 1.6 MPH 309.0w/m2
08/17/2011 0.23" 0.18" 0.00" 0.18" 87.3° 41.2° 65.5° 40.3% 2.4 MPH 290.3w/m2
08/18/2011 0.23" 0.18" 0.00" 0.18" 88.7° 42.8° 67.4° 37.5% 4.1 MPH 249.0w/m2
08/19/2011 0.22" 0.17" 0.00" 0.17" 86.1° 50.4° 68.5° 47.4% 3.2 MPH 254.6w/m2
08/20/2011 0.11" 0.09" 0.08" 0.02" 85.4° 45.8° 62.2° 64.6% 0.4 MPH 168.0w/m2
08/21/2011 0.19" 0.14" 0.00" 0.14" 86.7° 46.4° 64.9° 57.0% 1.3 MPH 237.4w/m2
08/22/2011 0.22" 0.17" 0.00" 0.17" 88.6° 48.9° 67.0° 49.2% 2.4 MPH 269.7w/m2
08/23/2011 0.25" 0.19" 0.00" 0.19" 89.2° 45.8° 69.1° 41.9% 2.8 MPH 306.6w/m2
08/24/2011 0.21" 0.15" 0.00" 0.15" 90.8° 45.4° 69.2° 41.0% 1.5 MPH 266.9w/m2
08/25/2011 0.15" 0.11" 0.00" 0.11" 89.0° 49.4° 66.8° 50.6% 0.9 MPH 193.1w/m2
08/26/2011 0.18" 0.13" 0.15" 0.01" 89.9° 46.0° 65.4° 59.3% 1.6 MPH 235.3w/m2
08/27/2011 0.15" 0.11" 0.13" 0.00" 87.5° 50.7° 67.1° 60.8% 0.2 MPH 205.1w/m2
08/28/2011 0.22" 0.16" 0.20" 0.00" 86.7° 53.3° 68.5° 61.9% 4.9 MPH 272.0w/m2
08/29/2011 0.22" 0.16" 0.00" 0.16" 84.5° 51.7° 67.5° 52.8% 3.6 MPH 280.2w/m2
08/30/2011 0.18" 0.13" 0.08" 0.07" 85.7° 48.4° 65.6° 53.9% 2.0 MPH 238.5w/m2
08/31/2011 0.21" 0.15" 0.00" 0.15" 86.1° 43.2° 63.5° 53.1% 3.9 MPH 246.9w/m2
Totals: 6.51" 5.20" 1.06" 4.35" 90.8° 38.1° 65.5° 50.1% 2.4 MPH 273.1w/m2